Back to top

Rawlins, WY weather

Rawlins Municipal Airport/Harvey Field, Rawlins, WY: 8/18/2022 03:53
Visibility10 statute milessun with broken clouds
View 7-Day Forecast
Area Summary
Sky/CloudsBroken at 11000ft
Weather [last 24 hours]None [rain began 19:07; rain began 19:07 ended 19:50 ]
Pressure30.36 in.Hg (1028 hPa)
Dew Point37.9 °F (3.3 °C)
Relative Humidity47.2 %
Last 24-Hour Precip.Trace
Reading TimePrecipitation
6-hr ending 8/17@23:53Trace
Temperature57.9 °F (14.4 °C)red thermometer
Reading TimeMinimum to Maximum Temperature
6-hr ending 8/17@23:5361 °F to 84.9 °F (16.1 °C to 29.4 °C)
6-hr ending 8/17@17:5375.9 °F to 86 °F (24.4 °C to 30 °C)
6-hr ending 8/17@11:5348 °F to 78.1 °F (8.9 °C to 25.6 °C)
6-hr ending 8/17@05:5346.9 °F to 60.1 °F (8.3 °C to 15.6 °C)
24-hr ending 8/18@00:5346.9 °F to 86 °F (8.3 °C to 30 °C)
Wind6.9 MPH (6 KT) green arrow pointing 45 degrees
Wind FromNortheast (040 Degrees)
Rolling 24-hr Peak Wind41.4 MPH (36 KT) on 8/17@19:12
Rolling 24-hr Peak Wind FromNorth (350 Degrees)
Twilight Begins05:51Sunshine Yesterday
Sunrise06:20N/A
Sunset20:04
Twilight Ends20:34
METARKRWL 180953Z AUTO 04006KT 10SM BKN110 14/03 A3036 RMK AO2 SLP176 T01440033
Tags: